Time;durP1;ratioP1;P1;durP2;ratioP2;P2;SDS_P1;SDS_P2;PMS_P1;PMS_P2;Temp;Humidity;BMP_temperature;BMP_pressure;BME280_temperature;BME280_humidity;BME280_pressure;Samples;Min_cycle;Max_cycle;Signal;HPM_P1;HPM_P2
2022/05/09 00:01:46;;;;;;;;;;;22.10;45.20;;;;;;5161933;27;19944;-53
2022/05/09 00:04:12;;;;;;;;;;;22.10;45.00;;;;;;5164196;27;19975;-51
2022/05/09 00:06:38;;;;;;;;;;;21.60;45.10;;;;;;5160394;27;20021;-54
2022/05/09 00:09:04;;;;;;;;;;;21.20;44.90;;;;;;5160987;27;19970;-50
2022/05/09 00:11:30;;;;;;;;;;;21.20;45.00;;;;;;5166715;27;19923;-52
2022/05/09 00:13:56;;;;;;;;;;;21.30;46.40;;;;;;5161222;27;21975;-52
2022/05/09 00:16:21;;;;;;;;;;;21.70;46.30;;;;;;5167094;27;19941;-52
2022/05/09 00:18:47;;;;;;;;;;;21.70;46.60;;;;;;5161619;27;20021;-52
2022/05/09 00:21:13;;;;;;;;;;;21.80;46.50;;;;;;5160348;27;19923;-55
2022/05/09 00:23:39;;;;;;;;;;;21.80;46.30;;;;;;5164118;27;20318;-49
2022/05/09 00:26:05;;;;;;;;;;;21.80;46.20;;;;;;5160560;27;20354;-49
2022/05/09 00:28:30;;;;;;;;;;;21.90;45.90;;;;;;5160836;27;20379;-48
2022/05/09 00:30:56;;;;;;;;;;;21.90;45.70;;;;;;5166522;27;19963;-52
2022/05/09 00:33:24;;;;;;;;;;;21.90;45.50;;;;;;5160768;27;19971;-51
2022/05/09 00:35:50;;;;;;;;;;;22.00;45.30;;;;;;5146296;27;19927;-49
2022/05/09 00:38:16;;;;;;;;;;;22.10;45.20;;;;;;5162152;27;20337;-49
2022/05/09 00:41:28;;;;;;;;;;;22.00;45.40;;;;;;5161828;27;19922;-50
2022/05/09 00:43:31;;;;;;;;;;;21.90;45.90;;;;;;5168561;27;19960;-48
2022/05/09 00:45:57;;;;;;;;;;;21.90;46.00;;;;;;5145659;27;19975;-51
2022/05/09 00:48:23;;;;;;;;;;;21.90;45.90;;;;;;5164262;27;19923;-49
2022/05/09 00:50:49;;;;;;;;;;;22.00;45.60;;;;;;5169748;27;19934;-48
2022/05/09 00:53:15;;;;;;;;;;;22.00;45.40;;;;;;5164536;27;19937;-49
2022/05/09 00:55:45;;;;;;;;;;;22.00;45.30;;;;;;5164472;27;19968;-52
2022/05/09 00:58:15;;;;;;;;;;;22.10;45.10;;;;;;5148731;27;19923;-49
2022/05/09 01:00:42;;;;;;;;;;;22.10;45.10;;;;;;5143622;27;20435;-47
2022/05/09 01:03:10;;;;;;;;;;;22.00;45.40;;;;;;5166012;27;20025;-54
2022/05/09 01:05:37;;;;;;;;;;;22.00;45.60;;;;;;5168442;27;19923;-50
2022/05/09 01:08:03;;;;;;;;;;;22.00;45.70;;;;;;5163950;27;19923;-51
2022/05/09 01:10:30;;;;;;;;;;;22.10;45.50;;;;;;5169492;27;19959;-48
2022/05/09 01:12:56;;;;;;;;;;;22.00;45.20;;;;;;5145615;27;19944;-48
2022/05/09 01:15:22;;;;;;;;;;;22.10;45.10;;;;;;5143424;27;19966;-51
2022/05/09 01:17:48;;;;;;;;;;;22.10;45.00;;;;;;5166437;27;20017;-49
2022/05/09 01:20:14;;;;;;;;;;;22.10;45.00;;;;;;5162645;27;20415;-49
2022/05/09 01:22:40;;;;;;;;;;;22.00;45.10;;;;;;5163326;27;20021;-48
2022/05/09 01:25:11;;;;;;;;;;;22.10;45.00;;;;;;5169274;27;19988;-48
2022/05/09 01:27:37;;;;;;;;;;;22.20;44.80;;;;;;5163502;27;19931;-47
2022/05/09 01:30:08;;;;;;;;;;;22.20;44.80;;;;;;5169213;27;19996;-47
2022/05/09 01:32:35;;;;;;;;;;;22.20;44.70;;;;;;5165110;27;19937;-47
2022/05/09 01:35:06;;;;;;;;;;;22.10;45.00;;;;;;5161891;27;19927;-51
2022/05/09 01:37:31;;;;;;;;;;;22.10;45.00;;;;;;5166872;27;19922;-49
2022/05/09 01:39:57;;;;;;;;;;;22.00;45.20;;;;;;5163186;27;20588;-46
2022/05/09 01:42:23;;;;;;;;;;;22.10;45.10;;;;;;5163095;27;19923;-47
2022/05/09 01:44:49;;;;;;;;;;;22.10;45.00;;;;;;5168872;27;20824;-48
2022/05/09 01:49:59;;;;;;;;;;;22.10;44.80;;;;;;5161918;27;19937;-49
2022/05/09 01:52:26;;;;;;;;;;;21.90;45.20;;;;;;5169053;27;19923;-48
2022/05/09 01:54:52;;;;;;;;;;;22.00;45.20;;;;;;5160272;27;19927;-52
2022/05/09 01:57:18;;;;;;;;;;;22.10;45.00;;;;;;5165225;27;20378;-52
2022/05/09 01:59:43;;;;;;;;;;;22.20;44.70;;;;;;5165765;27;19967;-51
2022/05/09 02:02:11;;;;;;;;;;;22.20;44.60;;;;;;5163052;27;20365;-52
2022/05/09 02:04:40;;;;;;;;;;;22.10;44.60;;;;;;5168716;27;19930;-54
2022/05/09 02:07:09;;;;;;;;;;;22.10;44.80;;;;;;5163118;27;19933;-53
2022/05/09 02:09:39;;;;;;;;;;;22.00;45.00;;;;;;5163121;27;19923;-49
2022/05/09 02:12:05;;;;;;;;;;;21.70;45.20;;;;;;5166393;27;19922;-52
2022/05/09 02:14:31;;;;;;;;;;;21.30;44.70;;;;;;5161064;27;19959;-52
2022/05/09 02:16:56;;;;;;;;;;;21.20;44.10;;;;;;5162374;27;20292;-48
2022/05/09 02:19:22;;;;;;;;;;;21.30;45.30;;;;;;5168225;27;19930;-51
2022/05/09 02:21:48;;;;;;;;;;;21.60;46.10;;;;;;5162819;27;19922;-48
2022/05/09 02:24:14;;;;;;;;;;;21.80;45.70;;;;;;5168356;27;20393;-47
2022/05/09 02:26:39;;;;;;;;;;;21.70;45.80;;;;;;5162758;27;19983;-50
2022/05/09 02:29:05;;;;;;;;;;;21.80;45.60;;;;;;5162728;27;19923;-50
2022/05/09 02:31:32;;;;;;;;;;;21.90;45.10;;;;;;5165083;27;19923;-50
2022/05/09 02:33:58;;;;;;;;;;;21.90;44.90;;;;;;5161709;27;19922;-51
2022/05/09 02:36:24;;;;;;;;;;;22.00;44.60;;;;;;5162558;27;20296;-50
2022/05/09 02:38:50;;;;;;;;;;;21.90;44.80;;;;;;5168054;27;19930;-51
2022/05/09 02:41:15;;;;;;;;;;;22.00;44.80;;;;;;5162722;27;20271;-47
2022/05/09 02:43:41;;;;;;;;;;;21.90;45.00;;;;;;5167247;27;20029;-56
2022/05/09 02:46:07;;;;;;;;;;;21.80;45.40;;;;;;5164338;27;19979;-48
2022/05/09 02:48:33;;;;;;;;;;;21.80;45.60;;;;;;5160949;27;19954;-48
2022/05/09 02:50:59;;;;;;;;;;;21.90;45.30;;;;;;5165862;27;19977;-51
2022/05/09 02:53:24;;;;;;;;;;;21.90;45.30;;;;;;5162198;27;19930;-48
2022/05/09 02:55:50;;;;;;;;;;;21.90;45.10;;;;;;5162541;27;19934;-50
2022/05/09 02:58:16;;;;;;;;;;;22.10;44.80;;;;;;5149412;27;19938;-49
2022/05/09 03:00:42;;;;;;;;;;;22.00;44.70;;;;;;5161830;27;19931;-50
2022/05/09 03:05:52;;;;;;;;;;;22.00;44.80;;;;;;5167882;27;20115;-52
2022/05/09 03:08:18;;;;;;;;;;;22.00;45.20;;;;;;5159503;27;20333;-50
2022/05/09 03:10:44;;;;;;;;;;;21.90;45.30;;;;;;5166607;27;19926;-47
2022/05/09 03:13:12;;;;;;;;;;;22.00;45.00;;;;;;5162156;27;19926;-49
2022/05/09 03:15:39;;;;;;;;;;;22.00;45.00;;;;;;5162235;27;19923;-49
2022/05/09 03:18:05;;;;;;;;;;;22.10;44.70;;;;;;5167540;27;19962;-49
2022/05/09 03:20:31;;;;;;;;;;;22.20;44.50;;;;;;5162113;27;19922;-53
2022/05/09 03:22:57;;;;;;;;;;;22.20;44.40;;;;;;5163777;27;20374;-54
2022/05/09 03:25:23;;;;;;;;;;;22.00;44.60;;;;;;5166410;27;20322;-54
2022/05/09 03:27:48;;;;;;;;;;;21.90;44.90;;;;;;5160731;27;19923;-55
2022/05/09 03:30:15;;;;;;;;;;;21.90;45.00;;;;;;5163735;27;19938;-56
2022/05/09 03:32:41;;;;;;;;;;;21.80;45.20;;;;;;5166088;27;19926;-55
2022/05/09 03:35:08;;;;;;;;;;;21.80;45.30;;;;;;5162492;27;19953;-51
2022/05/09 03:37:34;;;;;;;;;;;21.80;45.30;;;;;;5167496;27;19933;-52
2022/05/09 03:39:59;;;;;;;;;;;21.90;45.10;;;;;;5162711;27;19923;-51
2022/05/09 03:42:25;;;;;;;;;;;21.90;44.80;;;;;;5162416;27;19923;-53
2022/05/09 03:44:51;;;;;;;;;;;21.90;44.70;;;;;;5164782;27;19956;-50
2022/05/09 03:47:17;;;;;;;;;;;21.90;44.70;;;;;;5160891;27;19971;-50
2022/05/09 03:49:43;;;;;;;;;;;21.80;44.80;;;;;;5161519;27;20378;-53
2022/05/09 03:52:09;;;;;;;;;;;21.80;45.10;;;;;;5167315;27;19923;-54
2022/05/09 03:54:35;;;;;;;;;;;21.80;45.30;;;;;;5161788;27;20385;-50
2022/05/09 03:57:01;;;;;;;;;;;21.80;45.00;;;;;;5167254;27;19927;-51
2022/05/09 03:59:27;;;;;;;;;;;21.80;44.90;;;;;;5161859;27;20326;-50
2022/05/09 04:01:53;;;;;;;;;;;21.90;44.80;;;;;;5156534;27;19930;-51
2022/05/09 04:04:19;;;;;;;;;;;21.90;44.60;;;;;;5164794;27;19923;-53
2022/05/09 04:06:45;;;;;;;;;;;21.80;44.80;;;;;;5161328;27;19945;-56
2022/05/09 04:09:10;;;;;;;;;;;21.80;44.90;;;;;;5161920;27;20266;-52
2022/05/09 04:11:36;;;;;;;;;;;21.80;45.20;;;;;;5167000;27;20294;-52
2022/05/09 04:14:02;;;;;;;;;;;21.80;45.00;;;;;;5164270;27;19927;-53
2022/05/09 04:19:12;;;;;;;;;;;21.30;44.80;;;;;;5170839;27;20390;-54
2022/05/09 04:21:38;;;;;;;;;;;21.00;44.10;;;;;;5162285;27;19923;-53
2022/05/09 04:24:04;;;;;;;;;;;21.00;43.70;;;;;;5169705;27;19927;-55
2022/05/09 04:26:33;;;;;;;;;;;21.40;45.10;;;;;;5165017;27;20436;-52
2022/05/09 04:29:01;;;;;;;;;;;21.40;45.50;;;;;;5164836;27;20323;-54
2022/05/09 04:31:28;;;;;;;;;;;21.50;45.70;;;;;;5170390;27;20017;-51
2022/05/09 04:33:55;;;;;;;;;;;21.40;46.10;;;;;;5146522;27;19930;-51
2022/05/09 04:36:21;;;;;;;;;;;21.40;46.30;;;;;;5164931;27;19923;-52
2022/05/09 04:38:50;;;;;;;;;;;21.40;46.60;;;;;;5168542;27;19927;-55
2022/05/09 04:41:17;;;;;;;;;;;21.50;46.20;;;;;;5162668;27;20381;-52
2022/05/09 04:43:43;;;;;;;;;;;21.60;45.90;;;;;;5168165;27;20342;-57
2022/05/09 04:46:08;;;;;;;;;;;21.70;45.60;;;;;;5166365;27;20015;-54
2022/05/09 04:48:34;;;;;;;;;;;21.70;45.50;;;;;;5164723;27;20010;-52
2022/05/09 04:51:00;;;;;;;;;;;21.70;45.30;;;;;;5169988;27;19927;-54
2022/05/09 04:53:26;;;;;;;;;;;21.80;45.30;;;;;;5164514;27;19958;-52
2022/05/09 04:55:54;;;;;;;;;;;21.60;45.70;;;;;;5164590;27;19929;-57
2022/05/09 04:58:20;;;;;;;;;;;21.60;45.90;;;;;;5166934;27;19930;-52
2022/05/09 05:00:46;;;;;;;;;;;21.70;45.60;;;;;;5163324;27;19982;-55
2022/05/09 05:03:11;;;;;;;;;;;21.70;45.50;;;;;;5164613;27;19922;-55
2022/05/09 05:05:37;;;;;;;;;;;21.80;45.20;;;;;;5169297;27;20361;-53
2022/05/09 05:08:03;;;;;;;;;;;21.80;44.90;;;;;;5164492;27;20013;-52
2022/05/09 05:10:30;;;;;;;;;;;21.80;44.80;;;;;;5169838;27;20377;-56
2022/05/09 05:12:59;;;;;;;;;;;21.80;44.90;;;;;;5164365;27;19933;-53
2022/05/09 05:15:25;;;;;;;;;;;21.80;45.10;;;;;;5162778;27;19974;-53
2022/05/09 05:17:51;;;;;;;;;;;21.70;45.40;;;;;;5167209;27;19922;-53
2022/05/09 05:20:17;;;;;;;;;;;21.80;45.20;;;;;;5163519;27;20412;-54
2022/05/09 05:22:43;;;;;;;;;;;21.80;45.00;;;;;;5163581;27;20299;-54
2022/05/09 05:25:10;;;;;;;;;;;21.80;44.90;;;;;;5169095;27;20391;-54
2022/05/09 05:27:36;;;;;;;;;;;21.90;44.60;;;;;;5164235;27;20342;-55
2022/05/09 05:30:02;;;;;;;;;;;21.90;44.60;;;;;;5169663;27;19926;-54
2022/05/09 05:32:31;;;;;;;;;;;21.80;44.80;;;;;;5163824;27;19980;-54
2022/05/09 05:34:58;;;;;;;;;;;21.80;45.10;;;;;;5160947;27;20070;-55
2022/05/09 05:37:23;;;;;;;;;;;21.80;45.10;;;;;;5167858;27;20033;-54
2022/05/09 05:39:49;;;;;;;;;;;21.80;45.20;;;;;;5163171;27;20381;-54
2022/05/09 05:42:17;;;;;;;;;;;21.80;45.00;;;;;;5163441;27;19931;-55
2022/05/09 05:44:46;;;;;;;;;;;21.90;44.80;;;;;;5168854;27;20023;-52
2022/05/09 05:47:13;;;;;;;;;;;21.90;44.60;;;;;;5163523;27;19932;-53
2022/05/09 05:49:39;;;;;;;;;;;21.90;44.60;;;;;;5164098;27;19927;-57
2022/05/09 05:52:04;;;;;;;;;;;21.90;44.70;;;;;;5167500;27;19980;-52
2022/05/09 05:54:35;;;;;;;;;;;21.80;45.20;;;;;;5161038;27;19923;-53
2022/05/09 05:57:01;;;;;;;;;;;21.80;45.40;;;;;;5168490;27;20394;-51
2022/05/09 05:59:27;;;;;;;;;;;21.80;45.50;;;;;;5144381;27;19940;-52
2022/05/09 06:01:53;;;;;;;;;;;21.90;45.20;;;;;;5163296;27;19922;-54
2022/05/09 06:04:19;;;;;;;;;;;21.90;45.20;;;;;;5168619;27;20362;-53
2022/05/09 06:06:45;;;;;;;;;;;22.00;45.00;;;;;;5163265;27;20322;-52
2022/05/09 06:09:12;;;;;;;;;;;22.00;44.90;;;;;;5163268;27;20040;-55
2022/05/09 06:11:38;;;;;;;;;;;21.90;45.40;;;;;;5165814;27;20013;-55
2022/05/09 06:14:05;;;;;;;;;;;21.80;45.60;;;;;;5161714;27;20467;-54
2022/05/09 06:16:30;;;;;;;;;;;21.90;45.50;;;;;;5168174;27;19931;-50
2022/05/09 06:18:56;;;;;;;;;;;22.00;45.30;;;;;;5163089;27;20418;-52
2022/05/09 06:21:22;;;;;;;;;;;22.00;45.10;;;;;;5162771;27;20306;-49
2022/05/09 06:23:49;;;;;;;;;;;21.90;45.00;;;;;;5168567;27;19960;-49
2022/05/09 06:26:15;;;;;;;;;;;21.30;45.20;;;;;;5162972;27;19927;-50
2022/05/09 06:28:41;;;;;;;;;;;21.20;44.40;;;;;;5162070;27;19926;-51
2022/05/09 06:31:07;;;;;;;;;;;21.20;44.60;;;;;;5165605;27;19945;-51
2022/05/09 06:33:33;;;;;;;;;;;21.50;45.30;;;;;;5162320;27;20025;-48
2022/05/09 06:35:59;;;;;;;;;;;21.60;45.60;;;;;;5165355;27;20013;-55
2022/05/09 06:38:27;;;;;;;;;;;21.60;46.10;;;;;;5165198;27;19923;-51
2022/05/09 06:40:53;;;;;;;;;;;21.60;46.60;;;;;;5158562;27;20017;-49
2022/05/09 06:43:19;;;;;;;;;;;21.50;46.90;;;;;;5168380;27;20300;-50
2022/05/09 06:45:45;;;;;;;;;;;21.60;46.60;;;;;;5162741;27;19930;-50
2022/05/09 06:48:11;;;;;;;;;;;21.80;46.40;;;;;;5160095;27;19923;-48
2022/05/09 06:50:37;;;;;;;;;;;21.80;46.20;;;;;;5166428;27;19927;-50
2022/05/09 06:53:03;;;;;;;;;;;21.80;45.90;;;;;;5162204;27;20374;-49
2022/05/09 06:55:29;;;;;;;;;;;21.80;45.70;;;;;;5162453;27;19949;-53
2022/05/09 06:57:55;;;;;;;;;;;21.90;45.50;;;;;;5167796;27;19923;-48
2022/05/09 07:00:21;;;;;;;;;;;22.00;45.20;;;;;;5162486;27;19987;-49
2022/05/09 07:02:47;;;;;;;;;;;22.00;45.30;;;;;;5148622;27;20484;-47
2022/05/09 07:05:15;;;;;;;;;;;21.90;45.60;;;;;;5161850;27;19922;-49
2022/05/09 07:07:41;;;;;;;;;;;21.90;45.90;;;;;;5159540;27;20021;-51
2022/05/09 07:10:07;;;;;;;;;;;21.80;46.10;;;;;;5167036;27;20013;-46
2022/05/09 07:12:40;;;;;;;;;;;21.90;46.10;;;;;;5161895;27;20134;-49
2022/05/09 07:15:06;;;;;;;;;;;21.90;45.80;;;;;;5162223;27;20178;-50
2022/05/09 07:17:32;;;;;;;;;;;22.00;45.60;;;;;;5167487;27;19930;-48
2022/05/09 07:19:58;;;;;;;;;;;22.00;45.30;;;;;;5162401;27;20036;-48
2022/05/09 07:22:23;;;;;;;;;;;22.10;45.00;;;;;;5166531;27;19922;-54
2022/05/09 07:24:49;;;;;;;;;;;22.10;44.80;;;;;;5160839;27;19927;-51
2022/05/09 07:27:17;;;;;;;;;;;22.10;45.00;;;;;;5160544;27;20389;-48
2022/05/09 07:29:42;;;;;;;;;;;22.10;44.90;;;;;;5163208;27;19994;-49
2022/05/09 07:32:09;;;;;;;;;;;22.00;45.40;;;;;;5162169;27;21011;-49
2022/05/09 07:34:35;;;;;;;;;;;22.00;45.60;;;;;;5161826;27;19927;-50
2022/05/09 07:37:00;;;;;;;;;;;22.00;45.60;;;;;;5167575;27;20594;-49
2022/05/09 07:39:26;;;;;;;;;;;22.10;45.40;;;;;;5162212;27;19972;-49
2022/05/09 07:41:52;;;;;;;;;;;22.20;45.10;;;;;;5162888;27;19946;-55
2022/05/09 07:44:18;;;;;;;;;;;22.20;44.90;;;;;;5163086;27;19945;-49
2022/05/09 07:46:44;;;;;;;;;;;22.20;44.90;;;;;;5161388;27;19933;-49
2022/05/09 07:49:09;;;;;;;;;;;22.20;44.90;;;;;;5170605;27;19930;-48
2022/05/09 07:51:37;;;;;;;;;;;22.20;44.90;;;;;;5145352;27;19923;-49
2022/05/09 07:54:03;;;;;;;;;;;22.00;45.50;;;;;;5165085;27;20423;-48
2022/05/09 07:56:29;;;;;;;;;;;22.10;45.50;;;;;;5170962;27;19923;-51
2022/05/09 07:58:55;;;;;;;;;;;22.10;45.50;;;;;;5165688;27;20027;-47
2022/05/09 08:01:20;;;;;;;;;;;22.00;45.60;;;;;;5144411;27;19923;-46
2022/05/09 08:03:46;;;;;;;;;;;22.10;45.30;;;;;;5169133;27;20029;-44
2022/05/09 08:06:12;;;;;;;;;;;22.10;45.20;;;;;;5164844;27;19930;-46
2022/05/09 08:08:40;;;;;;;;;;;22.00;45.30;;;;;;5170702;27;19927;-46
2022/05/09 08:11:06;;;;;;;;;;;22.20;45.20;;;;;;5164804;27;20033;-47
2022/05/09 08:13:33;;;;;;;;;;;22.20;45.10;;;;;;5164787;27;19931;-49
2022/05/09 08:15:59;;;;;;;;;;;22.10;45.40;;;;;;5170842;27;20419;-49
2022/05/09 08:18:26;;;;;;;;;;;22.00;46.00;;;;;;5164807;27;20011;-49
2022/05/09 08:20:53;;;;;;;;;;;22.00;45.80;;;;;;5162012;27;19923;-47
2022/05/09 08:23:20;;;;;;;;;;;22.00;46.10;;;;;;5169500;27;20378;-46
2022/05/09 08:25:46;;;;;;;;;;;22.10;45.80;;;;;;5164349;27;20001;-45
2022/05/09 08:28:12;;;;;;;;;;;22.10;45.80;;;;;;5168933;27;20268;-54
2022/05/09 08:30:38;;;;;;;;;;;21.90;45.50;;;;;;5166111;27;20365;-45
2022/05/09 08:33:05;;;;;;;;;;;21.30;44.90;;;;;;5164711;27;19974;-44
2022/05/09 08:35:31;;;;;;;;;;;21.30;44.60;;;;;;5170324;27;20075;-45
2022/05/09 08:37:57;;;;;;;;;;;21.50;45.10;;;;;;5162245;27;19974;-49
2022/05/09 08:40:24;;;;;;;;;;;21.80;45.70;;;;;;5162665;27;19927;-44
2022/05/09 08:42:56;;;;;;;;;;;21.80;46.20;;;;;;5169634;27;19927;-46
2022/05/09 08:45:25;;;;;;;;;;;21.80;46.60;;;;;;5145749;27;19929;-44
2022/05/09 08:47:58;;;;;;;;;;;21.80;46.70;;;;;;5164693;27;20009;-43
2022/05/09 08:50:33;;;;;;;;;;;21.80;46.80;;;;;;5170112;27;20014;-46
2022/05/09 08:53:02;;;;;;;;;;;22.00;46.30;;;;;;5146249;27;19923;-44
2022/05/09 08:55:32;;;;;;;;;;;22.00;46.10;;;;;;5163708;27;19927;-48
2022/05/09 08:58:03;;;;;;;;;;;22.10;46.00;;;;;;5148861;27;19922;-47
2022/05/09 09:00:29;;;;;;;;;;;22.10;45.80;;;;;;5144644;27;19922;-44
2022/05/09 09:03:15;;;;;;;;;;;22.00;46.20;;;;;;5169745;27;19934;-44
2022/05/09 09:05:42;;;;;;;;;;;22.00;46.30;;;;;;5151199;27;19929;-45
2022/05/09 09:08:14;;;;;;;;;;;22.00;46.60;;;;;;5145535;27;20033;-44
2022/05/09 09:10:43;;;;;;;;;;;22.10;46.30;;;;;;5151195;27;20374;-46
2022/05/09 09:13:19;;;;;;;;;;;22.10;46.10;;;;;;5164812;27;19938;-47
2022/05/09 09:16:05;;;;;;;;;;;22.00;46.30;;;;;;5161023;27;19986;-44
2022/05/09 09:18:46;;;;;;;;;;;22.10;46.00;;;;;;5168177;27;19926;-52
2022/05/09 09:21:30;;;;;;;;;;;22.00;46.40;;;;;;5169374;27;19981;-43
2022/05/09 09:23:56;;;;;;;;;;;22.10;45.90;;;;;;5165303;27;19923;-47
2022/05/09 09:26:28;;;;;;;;;;;20.70;49.00;;;;;;5166333;27;19930;-54
2022/05/09 09:28:57;;;;;;;;;;;20.30;51.20;;;;;;5149285;27;19929;-45
2022/05/09 09:31:27;;;;;;;;;;;21.40;48.30;;;;;;5164215;27;19923;-48
2022/05/09 09:34:12;;;;;;;;;;;21.80;47.20;;;;;;5147555;27;19927;-48
2022/05/09 09:36:39;;;;;;;;;;;21.90;46.70;;;;;;5168228;27;20017;-50
2022/05/09 09:39:10;;;;;;;;;;;21.90;46.80;;;;;;5145063;27;19933;-49
2022/05/09 09:41:36;;;;;;;;;;;22.00;46.80;;;;;;5150612;27;19923;-48
2022/05/09 09:44:24;;;;;;;;;;;22.10;46.60;;;;;;5163890;27;20253;-49
2022/05/09 09:47:00;;;;;;;;;;;22.20;46.10;;;;;;5146128;27;19937;-49
2022/05/09 09:49:26;;;;;;;;;;;21.90;46.80;;;;;;5150869;27;19926;-54
2022/05/09 09:51:52;;;;;;;;;;;20.00;50.60;;;;;;5162529;27;20441;-46
2022/05/09 09:54:21;;;;;;;;;;;20.60;51.30;;;;;;5163966;27;19922;-46
2022/05/09 09:56:47;;;;;;;;;;;21.40;49.20;;;;;;5170664;27;19934;-45
2022/05/09 09:59:21;;;;;;;;;;;21.70;48.40;;;;;;5130804;27;20268;-45
2022/05/09 10:02:01;;;;;;;;;;;21.80;47.90;;;;;;5147720;27;20066;-46
2022/05/09 10:04:27;;;;;;;;;;;21.90;47.30;;;;;;5150396;27;20407;-46
2022/05/09 10:06:59;;;;;;;;;;;22.00;46.80;;;;;;5163572;27;19931;-46
2022/05/09 10:09:25;;;;;;;;;;;22.10;46.50;;;;;;5162268;27;20287;-52
2022/05/09 10:11:50;;;;;;;;;;;21.70;47.20;;;;;;5165331;27;20370;-54
2022/05/09 10:14:35;;;;;;;;;;;20.00;50.80;;;;;;5164698;27;19922;-46
2022/05/09 10:17:14;;;;;;;;;;;20.70;51.10;;;;;;5163336;27;20021;-46
2022/05/09 10:19:40;;;;;;;;;;;21.50;48.60;;;;;;5170674;27;19923;-46
2022/05/09 10:25:15;;;;;;;;;;;21.90;47.10;;;;;;5163099;27;19944;-48
2022/05/09 10:27:40;;;;;;;;;;;21.90;47.20;;;;;;5148053;27;19930;-46
2022/05/09 10:30:30;;;;;;;;;;;21.90;47.10;;;;;;5160719;27;20277;-45
2022/05/09 10:33:18;;;;;;;;;;;22.00;46.60;;;;;;5205736;27;19918;-46
2022/05/09 10:35:46;;;;;;;;;;;22.20;46.20;;;;;;5207481;27;20017;-48
2022/05/09 10:38:17;;;;;;;;;;;21.80;45.90;;;;;;5182762;27;20285;-45
2022/05/09 10:40:50;;;;;;;;;;;21.30;45.20;;;;;;5206195;27;20021;-47
2022/05/09 10:43:23;;;;;;;;;;;21.30;44.70;;;;;;5207220;27;20401;-48
2022/05/09 10:45:49;;;;;;;;;;;21.70;46.30;;;;;;5204181;27;19982;-47
2022/05/09 10:48:14;;;;;;;;;;;21.80;46.50;;;;;;5165967;27;20441;-49
2022/05/09 10:50:42;;;;;;;;;;;21.80;46.80;;;;;;5206670;27;20022;-48
2022/05/09 10:53:17;;;;;;;;;;;21.90;46.80;;;;;;5184910;27;20018;-47
2022/05/09 10:55:55;;;;;;;;;;;22.00;46.70;;;;;;5202324;27;20167;-49
2022/05/09 10:58:25;;;;;;;;;;;22.00;46.40;;;;;;5205948;27;20383;-56
2022/05/09 11:00:52;;;;;;;;;;;22.10;46.00;;;;;;5180260;27;19927;-56
2022/05/09 11:03:25;;;;;;;;;;;20.90;47.90;;;;;;5201984;27;19932;-49
2022/05/09 11:05:56;;;;;;;;;;;19.90;50.70;;;;;;5203907;27;19958;-48
2022/05/09 11:08:30;;;;;;;;;;;21.20;48.00;;;;;;5177581;27;20021;-47
2022/05/09 11:10:58;;;;;;;;;;;21.80;46.60;;;;;;5205059;27;19933;-54
2022/05/09 11:13:25;;;;;;;;;;;22.00;45.90;;;;;;5205978;27;21236;-49
2022/05/09 11:15:59;;;;;;;;;;;21.90;46.20;;;;;;5181012;27;19933;-48
2022/05/09 11:18:28;;;;;;;;;;;22.00;46.20;;;;;;5205864;27;20443;-52
2022/05/09 11:21:00;;;;;;;;;;;22.10;46.10;;;;;;5200639;27;19923;-49
2022/05/09 11:23:29;;;;;;;;;;;22.10;46.00;;;;;;5178884;27;19933;-48
2022/05/09 11:25:55;;;;;;;;;;;22.10;45.80;;;;;;5164143;27;20017;-52
2022/05/09 11:28:21;;;;;;;;;;;20.60;48.80;;;;;;5159936;27;19926;-49
2022/05/09 11:30:47;;;;;;;;;;;20.00;50.60;;;;;;5161470;27;19922;-47
2022/05/09 11:33:13;;;;;;;;;;;21.00;49.00;;;;;;5166166;27;20090;-50
2022/05/09 11:35:39;;;;;;;;;;;21.70;47.20;;;;;;5180895;27;19929;-52
2022/05/09 11:38:08;;;;;;;;;;;21.80;46.50;;;;;;5179081;27;19947;-50
2022/05/09 11:40:45;;;;;;;;;;;21.90;46.40;;;;;;5184036;27;19930;-50
2022/05/09 11:43:29;;;;;;;;;;;21.90;46.40;;;;;;5168872;27;19974;-50
2022/05/09 11:46:01;;;;;;;;;;;22.00;46.30;;;;;;5165823;27;19953;-50
2022/05/09 11:48:30;;;;;;;;;;;22.00;46.10;;;;;;5151276;27;19933;-50
2022/05/09 11:51:15;;;;;;;;;;;22.10;45.80;;;;;;5146185;27;20013;-50
2022/05/09 11:53:41;;;;;;;;;;;21.70;45.90;;;;;;5164649;27;20112;-50
2022/05/09 11:56:08;;;;;;;;;;;20.20;49.70;;;;;;5170016;27;19923;-50
2022/05/09 11:58:35;;;;;;;;;;;21.20;47.50;;;;;;5164803;27;20466;-48
2022/05/09 12:01:01;;;;;;;;;;;21.80;46.00;;;;;;5147107;27;19972;-48
2022/05/09 12:03:56;;;;;;;;;;;21.90;45.50;;;;;;5163166;27;20125;-49
2022/05/09 12:06:32;;;;;;;;;;;22.00;45.30;;;;;;5130629;27;19927;-47
2022/05/09 12:09:01;;;;;;;;;;;22.10;45.30;;;;;;5165422;27;19929;-55
2022/05/09 12:11:31;;;;;;;;;;;22.10;45.30;;;;;;5169469;27;19929;-48
2022/05/09 12:14:00;;;;;;;;;;;22.10;45.30;;;;;;5164100;27;19922;-46
2022/05/09 12:16:50;;;;;;;;;;;22.20;45.00;;;;;;5169802;27;19929;-54
2022/05/09 12:19:27;;;;;;;;;;;20.60;47.80;;;;;;5166455;27;19929;-51
2022/05/09 12:22:11;;;;;;;;;;;20.00;49.70;;;;;;5162948;27;19937;-48
2022/05/09 12:24:41;;;;;;;;;;;21.20;47.50;;;;;;5163969;27;20150;-49
2022/05/09 12:27:26;;;;;;;;;;;21.70;46.10;;;;;;5169503;27;19923;-47
2022/05/09 12:29:52;;;;;;;;;;;21.90;45.60;;;;;;5163855;27;20388;-49
2022/05/09 12:32:18;;;;;;;;;;;21.90;45.60;;;;;;5164069;27;19926;-50
2022/05/09 12:34:45;;;;;;;;;;;22.00;45.30;;;;;;5169536;27;20026;-47
2022/05/09 12:37:11;;;;;;;;;;;22.10;44.90;;;;;;5161562;27;20057;-54
2022/05/09 12:39:50;;;;;;;;;;;22.20;44.70;;;;;;5167550;27;19929;-51
2022/05/09 12:42:26;;;;;;;;;;;21.90;44.50;;;;;;5165505;27;19922;-48
2022/05/09 12:44:52;;;;;;;;;;;20.50;47.10;;;;;;5144995;27;19995;-52
2022/05/09 12:47:25;;;;;;;;;;;21.20;44.40;;;;;;5168998;27;20468;-52
2022/05/09 12:49:54;;;;;;;;;;;21.30;44.10;;;;;;5144933;27;19922;-50
2022/05/09 12:52:21;;;;;;;;;;;21.70;45.10;;;;;;5144672;27;19926;-52
2022/05/09 12:55:52;;;;;;;;;;;21.80;45.00;;;;;;5145406;27;19929;-53
2022/05/09 12:57:34;;;;;;;;;;;22.00;44.60;;;;;;5145523;27;20013;-51
2022/05/09 13:00:00;;;;;;;;;;;22.00;44.40;;;;;;5162979;27;19924;-49
2022/05/09 13:02:28;;;;;;;;;;;22.00;44.40;;;;;;5149332;27;19929;-50
2022/05/09 13:04:53;;;;;;;;;;;22.20;44.30;;;;;;5163368;27;19923;-52
2022/05/09 13:07:19;;;;;;;;;;;22.20;44.20;;;;;;5163532;27;20157;-53
2022/05/09 13:09:55;;;;;;;;;;;22.20;44.10;;;;;;5169139;27;19972;-54
2022/05/09 13:12:36;;;;;;;;;;;20.60;47.10;;;;;;5163372;27;20356;-53
2022/05/09 13:15:07;;;;;;;;;;;19.90;49.00;;;;;;5139091;27;20658;-50
2022/05/09 13:17:38;;;;;;;;;;;21.10;47.00;;;;;;5167886;27;20326;-49
2022/05/09 13:20:04;;;;;;;;;;;21.70;45.30;;;;;;5162911;27;19922;-48
2022/05/09 13:22:31;;;;;;;;;;;21.90;44.60;;;;;;5128753;27;19926;-55
2022/05/09 13:24:58;;;;;;;;;;;22.10;44.00;;;;;;5167490;27;20403;-51
2022/05/09 13:27:24;;;;;;;;;;;22.10;43.90;;;;;;5163061;27;19929;-50
2022/05/09 13:29:51;;;;;;;;;;;22.20;44.00;;;;;;5168606;27;20387;-50
2022/05/09 13:32:27;;;;;;;;;;;22.10;44.30;;;;;;5159906;27;19974;-52
2022/05/09 13:34:53;;;;;;;;;;;22.10;44.30;;;;;;5161307;27;19930;-48
2022/05/09 13:37:26;;;;;;;;;;;22.20;44.20;;;;;;5149462;27;19929;-50
2022/05/09 13:39:52;;;;;;;;;;;22.20;44.10;;;;;;5163069;27;20105;-57
2022/05/09 13:42:28;;;;;;;;;;;21.80;44.10;;;;;;5162502;27;19929;-49
2022/05/09 13:44:57;;;;;;;;;;;20.00;48.00;;;;;;5168296;27;19950;-51
2022/05/09 13:47:24;;;;;;;;;;;20.50;47.80;;;;;;5162949;27;20186;-50
2022/05/09 13:49:50;;;;;;;;;;;21.40;45.40;;;;;;5161232;27;20180;-51
2022/05/09 13:52:18;;;;;;;;;;;21.80;44.50;;;;;;5146751;27;19923;-48
2022/05/09 13:54:46;;;;;;;;;;;21.90;44.20;;;;;;5143077;27;20426;-50
2022/05/09 13:57:17;;;;;;;;;;;22.00;44.10;;;;;;5167553;27;19927;-52
2022/05/09 13:59:44;;;;;;;;;;;22.00;44.00;;;;;;5165435;27;19929;-48
2022/05/09 14:02:10;;;;;;;;;;;22.10;43.80;;;;;;5141756;27;19929;-50
2022/05/09 14:04:36;;;;;;;;;;;22.10;43.70;;;;;;5149575;27;19929;-55
2022/05/09 14:07:37;;;;;;;;;;;21.80;43.80;;;;;;5143816;27;20007;-51
2022/05/09 14:09:47;;;;;;;;;;;20.00;47.80;;;;;;5143369;27;19943;-49
2022/05/09 14:12:20;;;;;;;;;;;20.90;46.80;;;;;;5166538;27;20009;-50
2022/05/09 14:14:46;;;;;;;;;;;21.70;44.90;;;;;;5161913;27;20409;-48
2022/05/09 14:17:17;;;;;;;;;;;21.80;44.40;;;;;;5162303;27;19922;-48
2022/05/09 14:19:43;;;;;;;;;;;22.00;44.00;;;;;;5167768;27;19929;-49
2022/05/09 14:22:10;;;;;;;;;;;22.00;44.00;;;;;;5162056;27;20317;-51
2022/05/09 14:24:36;;;;;;;;;;;22.00;43.80;;;;;;5162374;27;20185;-50
2022/05/09 14:29:52;;;;;;;;;;;21.50;44.20;;;;;;5160678;27;19922;-49
2022/05/09 14:32:36;;;;;;;;;;;19.80;48.20;;;;;;5142160;27;19927;-50
2022/05/09 14:35:02;;;;;;;;;;;20.70;46.90;;;;;;5167367;27;19922;-47
2022/05/09 14:37:30;;;;;;;;;;;21.50;44.70;;;;;;5125831;27;19922;-48